Time;durP1;ratioP1;P1;durP2;ratioP2;P2;SDS_P1;SDS_P2;PMS_P1;PMS_P2;Temp;Humidity;BMP_temperature;BMP_pressure;BME280_temperature;BME280_humidity;BME280_pressure;Samples;Min_cycle;Max_cycle;Signal;HPM_P1;HPM_P2
2022/10/05 00:01:26;;;;;;;8.50;7.13;;;;;;;12.94;77.32;100570.31;5120024;28;20462;-67
2022/10/05 00:03:57;;;;;;;9.17;6.60;;;;;;;12.96;77.38;100570.16;5116231;28;20486;-67
2022/10/05 00:06:25;;;;;;;9.90;6.60;;;;;;;12.97;77.27;100561.13;5105051;28;20482;-67
2022/10/05 00:08:51;;;;;;;13.97;7.80;;;;;;;12.88;77.84;100559.31;5117661;28;20506;-68
2022/10/05 00:11:19;;;;;;;9.10;7.03;;;;;;;13.00;77.18;100560.81;5108801;28;20470;-68
2022/10/05 00:13:46;;;;;;;9.80;6.50;;;;;;;12.95;77.49;100561.28;5106301;28;20466;-68
2022/10/05 00:16:16;;;;;;;16.13;9.90;;;;;;;12.97;77.44;100574.53;5100250;28;20483;-68
2022/10/05 00:18:45;;;;;;;9.00;7.13;;;;;;;12.92;77.81;100569.63;5101628;28;20532;-68
2022/10/05 00:21:18;;;;;;;10.00;7.03;;;;;;;12.94;77.51;100567.63;5105412;28;20486;-67
2022/10/05 00:23:44;;;;;;;12.17;7.07;;;;;;;12.95;77.86;100565.78;5109321;28;20502;-67
2022/10/05 00:26:14;;;;;;;10.67;7.27;;;;;;;12.99;77.51;100554.59;5107179;28;21217;-67
2022/10/05 00:28:42;;;;;;;9.00;6.97;;;;;;;12.87;77.86;100547.75;5114194;28;20470;-67
2022/10/05 00:31:16;;;;;;;9.80;7.07;;;;;;;12.87;78.08;100553.09;5108341;28;20889;-68
2022/10/05 00:33:43;;;;;;;9.70;6.93;;;;;;;12.83;78.15;100543.69;5101791;28;20531;-68
2022/10/05 00:36:10;;;;;;;10.27;7.77;;;;;;;12.87;78.35;100533.50;5100014;28;20923;-67
2022/10/05 00:38:36;;;;;;;7.63;6.70;;;;;;;12.81;78.62;100535.78;5108540;28;20530;-67
2022/10/05 00:41:07;;;;;;;13.50;7.57;;;;;;;12.87;78.39;100533.50;5110261;28;20505;-67
2022/10/05 00:43:55;;;;;;;9.53;6.60;;;;;;;12.84;78.63;100548.03;5109577;28;20564;-66
2022/10/05 00:46:24;;;;;;;9.50;6.93;;;;;;;12.88;78.44;100540.53;5105204;28;20479;-67
2022/10/05 00:48:56;;;;;;;11.47;7.60;;;;;;;12.86;78.62;100542.53;5118364;28;20470;-67
2022/10/05 00:51:26;;;;;;;11.00;7.90;;;;;;;12.93;78.19;100540.94;5106666;28;20498;-67
2022/10/05 00:54:02;;;;;;;11.50;8.20;;;;;;;12.84;78.62;100547.19;5106499;28;20508;-67
2022/10/05 00:56:39;;;;;;;14.00;8.00;;;;;;;12.88;78.52;100543.22;5105765;28;20462;-66
2022/10/05 00:59:12;;;;;;;8.10;6.70;;;;;;;12.97;78.30;100540.50;5097281;28;20446;-66
2022/10/05 01:01:44;;;;;;;10.43;7.50;;;;;;;12.99;77.90;100540.34;5108293;28;20500;-67
2022/10/05 01:04:17;;;;;;;11.27;7.00;;;;;;;13.00;78.05;100536.66;5106957;28;20482;-66
2022/10/05 01:06:53;;;;;;;8.80;7.30;;;;;;;12.94;78.45;100535.41;5109929;28;20482;-66
2022/10/05 01:09:26;;;;;;;7.37;6.23;;;;;;;12.94;78.44;100535.41;5120088;28;20478;-67
2022/10/05 01:11:57;;;;;;;10.97;7.00;;;;;;;13.02;78.52;100537.38;5107372;28;20472;-66
2022/10/05 01:14:29;;;;;;;8.37;6.73;;;;;;;13.08;78.21;100533.22;5107845;28;20447;-67
2022/10/05 01:16:59;;;;;;;8.20;6.50;;;;;;;13.03;77.99;100528.31;5107429;28;20507;-67
2022/10/05 01:19:43;;;;;;;15.07;7.20;;;;;;;13.07;77.94;100527.03;5114318;28;20474;-66
2022/10/05 01:22:32;;;;;;;10.97;7.13;;;;;;;13.06;77.93;100522.66;5095092;28;20507;-68
2022/10/05 01:25:11;;;;;;;9.67;6.50;;;;;;;13.08;77.92;100517.13;5113560;28;20489;-68
2022/10/05 01:27:51;;;;;;;10.60;7.23;;;;;;;13.07;77.82;100518.13;5114626;28;20454;-68
2022/10/05 01:30:19;;;;;;;9.90;6.60;;;;;;;13.00;77.96;100513.38;5108245;28;20483;-69
2022/10/05 01:32:50;;;;;;;9.77;7.50;;;;;;;13.03;78.10;100504.16;5107790;28;20471;-68
2022/10/05 01:35:38;;;;;;;11.30;7.10;;;;;;;13.05;78.19;100504.84;5112015;28;20456;-69
2022/10/05 01:38:14;;;;;;;7.63;5.97;;;;;;;13.09;77.82;100505.38;5101937;28;20527;-69
2022/10/05 01:40:49;;;;;;;13.53;7.17;;;;;;;13.07;78.14;100502.00;5110460;28;20490;-67
2022/10/05 01:43:19;;;;;;;14.67;8.00;;;;;;;13.08;78.09;100492.97;5120281;28;20489;-66
2022/10/05 01:45:55;;;;;;;8.57;6.50;;;;;;;13.06;78.35;100489.59;5120924;28;20531;-66
2022/10/05 01:48:32;;;;;;;9.67;6.27;;;;;;;13.06;78.38;100497.66;5112791;28;20481;-68
2022/10/05 01:51:04;;;;;;;10.50;7.13;;;;;;;13.17;77.83;100502.78;5107817;28;20498;-67
2022/10/05 01:53:39;;;;;;;10.20;5.90;;;;;;;13.12;78.00;100479.09;5115139;28;20945;-68
2022/10/05 01:56:10;;;;;;;12.17;7.57;;;;;;;13.08;78.32;100476.88;5108344;28;20513;-68
2022/10/05 01:58:44;;;;;;;9.10;6.57;;;;;;;13.16;77.97;100474.28;5123766;28;20465;-68
2022/10/05 02:01:16;;;;;;;9.60;6.60;;;;;;;13.12;78.13;100483.63;5123646;28;20573;-68
2022/10/05 02:03:46;;;;;;;10.20;6.60;;;;;;;13.13;77.88;100483.47;5123510;28;20481;-67
2022/10/05 02:06:18;;;;;;;11.37;7.00;;;;;;;13.14;78.02;100487.84;5112815;28;20485;-68
2022/10/05 02:08:48;;;;;;;7.53;6.47;;;;;;;13.21;78.08;100493.47;5122413;28;20485;-67
2022/10/05 02:11:15;;;;;;;10.13;7.30;;;;;;;13.12;78.23;100478.25;5123340;28;20485;-68
2022/10/05 02:13:46;;;;;;;8.57;7.10;;;;;;;13.09;78.59;100476.72;5121467;28;20443;-69
2022/10/05 02:16:16;;;;;;;9.53;6.30;;;;;;;13.19;78.12;100480.19;5104581;28;20497;-67
2022/10/05 02:18:48;;;;;;;9.10;6.93;;;;;;;13.07;78.56;100478.72;5122734;28;20530;-67
2022/10/05 02:21:15;;;;;;;10.27;6.53;;;;;;;13.02;78.75;100475.63;5123057;28;20478;-68
2022/10/05 02:23:43;;;;;;;9.57;6.43;;;;;;;13.05;78.83;100475.31;5123998;28;20497;-68
2022/10/05 02:26:11;;;;;;;11.17;6.70;;;;;;;13.04;78.94;100479.00;5123267;28;20473;-68
2022/10/05 02:28:41;;;;;;;11.90;7.20;;;;;;;13.11;78.64;100471.19;5121302;28;20466;-68
2022/10/05 02:31:11;;;;;;;10.63;7.10;;;;;;;13.05;78.74;100458.38;5122566;28;20474;-67
2022/10/05 02:33:38;;;;;;;9.63;7.10;;;;;;;13.11;78.73;100463.97;5123763;28;20435;-67
2022/10/05 02:36:12;;;;;;;10.03;7.13;;;;;;;13.12;78.86;100465.69;5122441;28;20482;-68
2022/10/05 02:38:49;;;;;;;13.60;7.23;;;;;;;13.10;78.95;100458.75;5123737;28;20933;-68
2022/10/05 02:41:23;;;;;;;9.80;7.30;;;;;;;13.11;78.72;100463.97;5110567;28;20502;-68
2022/10/05 02:43:56;;;;;;;12.80;7.80;;;;;;;13.10;78.69;100456.91;5122590;28;20482;-67
2022/10/05 02:46:32;;;;;;;11.90;7.43;;;;;;;13.02;79.27;100462.22;5122729;28;20478;-68
2022/10/05 02:49:07;;;;;;;9.80;6.93;;;;;;;13.18;78.63;100467.75;5122957;28;20499;-67
2022/10/05 02:51:38;;;;;;;13.27;7.30;;;;;;;13.05;79.19;100464.56;5121809;28;20474;-67
2022/10/05 02:54:13;;;;;;;9.30;7.37;;;;;;;13.14;78.72;100462.81;5122308;28;20438;-67
2022/10/05 02:56:45;;;;;;;11.70;7.27;;;;;;;13.19;78.98;100471.25;5121023;28;20513;-68
2022/10/05 02:59:15;;;;;;;10.47;7.50;;;;;;;13.14;79.01;100460.13;5122574;28;20485;-68
2022/10/05 03:01:49;;;;;;;12.67;7.23;;;;;;;13.17;78.88;100460.69;5121337;28;20469;-67
2022/10/05 03:04:24;;;;;;;7.90;6.60;;;;;;;13.18;78.96;100464.22;5122586;28;20581;-68
2022/10/05 03:06:55;;;;;;;8.13;6.97;;;;;;;13.16;79.17;100456.31;5120927;28;21054;-67
2022/10/05 03:09:22;;;;;;;11.77;7.90;;;;;;;13.19;79.14;100445.28;5122258;28;20474;-67
2022/10/05 03:11:56;;;;;;;11.33;7.70;;;;;;;13.21;78.76;100449.63;5121681;28;20486;-67
2022/10/05 03:14:26;;;;;;;12.73;8.50;;;;;;;13.17;78.88;100438.38;5121928;28;20457;-67
2022/10/05 03:17:04;;;;;;;13.27;8.33;;;;;;;13.17;79.15;100431.16;5120045;28;20509;-67
2022/10/05 03:19:55;;;;;;;10.60;7.90;;;;;;;13.10;79.35;100418.50;5121275;28;20467;-66
2022/10/05 03:22:28;;;;;;;12.90;8.00;;;;;;;13.09;79.79;100414.13;5121387;28;20478;-67
2022/10/05 03:25:12;;;;;;;12.27;7.07;;;;;;;13.03;79.73;100404.00;5081779;28;20529;-67
2022/10/05 03:27:42;;;;;;;12.03;7.93;;;;;;;13.15;79.71;100408.16;5103005;28;20501;-66
2022/10/05 03:30:13;;;;;;;13.80;7.93;;;;;;;13.04;79.76;100408.34;5121572;28;20991;-65
2022/10/05 03:32:48;;;;;;;10.10;7.80;;;;;;;13.00;80.06;100403.31;5121896;28;20443;-66
2022/10/05 03:35:19;;;;;;;10.47;7.60;;;;;;;13.00;80.26;100399.78;5121387;28;20442;-66
2022/10/05 03:37:49;;;;;;;9.30;7.47;;;;;;;13.08;79.90;100401.72;5121435;28;20942;-66
2022/10/05 03:40:25;;;;;;;13.00;8.80;;;;;;;13.05;80.31;100410.06;5121046;28;20485;-66
2022/10/05 03:43:01;;;;;;;11.03;7.37;;;;;;;13.17;79.86;100400.78;5095672;28;21008;-67
2022/10/05 03:45:30;;;;;;;11.83;8.00;;;;;;;13.04;80.15;100387.75;5121159;28;20991;-66
2022/10/05 03:48:03;;;;;;;13.03;8.33;;;;;;;13.19;79.83;100396.09;5121174;28;20511;-66
2022/10/05 03:50:37;;;;;;;10.47;7.47;;;;;;;13.22;79.78;100386.91;5120952;28;20471;-66
2022/10/05 03:53:06;;;;;;;13.07;7.73;;;;;;;13.10;79.86;100386.28;5119081;28;20470;-66
2022/10/05 03:55:36;;;;;;;10.10;8.00;;;;;;;13.19;80.06;100393.41;5120169;28;20470;-66
2022/10/05 03:58:06;;;;;;;10.63;6.40;;;;;;;13.07;80.11;100390.13;5120756;28;20595;-65
2022/10/05 04:00:34;;;;;;;11.33;7.67;;;;;;;13.21;79.70;100385.22;5117057;28;20503;-69
2022/10/05 04:03:05;;;;;;;13.20;7.50;;;;;;;13.19;79.50;100377.31;5109243;28;20507;-68
2022/10/05 04:05:36;;;;;;;11.03;7.90;;;;;;;13.16;79.83;100375.78;5116628;28;20481;-67
2022/10/05 04:08:07;;;;;;;10.83;7.87;;;;;;;13.19;79.92;100372.78;5104632;28;20509;-67
2022/10/05 04:10:40;;;;;;;13.27;8.50;;;;;;;13.15;80.09;100367.88;5120008;28;21027;-69
2022/10/05 04:13:11;;;;;;;16.03;7.13;;;;;;;13.10;80.02;100371.03;5105555;28;20467;-67
2022/10/05 04:15:41;;;;;;;11.60;8.30;;;;;;;13.21;79.91;100369.97;5112067;28;20505;-68
2022/10/05 04:18:17;;;;;;;10.07;8.37;;;;;;;13.11;80.01;100364.66;5109990;28;20495;-67
2022/10/05 04:20:45;;;;;;;9.10;7.40;;;;;;;13.19;79.71;100364.75;5113133;28;20467;-69
2022/10/05 04:23:18;;;;;;;9.10;7.17;;;;;;;13.29;79.45;100369.16;5099101;28;20471;-68
2022/10/05 04:25:47;;;;;;;10.17;7.67;;;;;;;13.14;79.72;100359.00;5096777;28;20495;-68
2022/10/05 04:28:19;;;;;;;9.63;7.50;;;;;;;13.18;79.74;100365.72;5098531;28;20521;-68
2022/10/05 04:30:47;;;;;;;11.80;7.77;;;;;;;13.22;79.62;100355.53;5099455;28;20463;-68
2022/10/05 04:33:16;;;;;;;10.80;7.70;;;;;;;13.21;79.75;100345.81;5106341;28;20466;-69
2022/10/05 04:35:55;;;;;;;10.70;8.10;;;;;;;13.18;79.89;100355.00;5097766;28;20480;-69
2022/10/05 04:38:29;;;;;;;11.90;8.00;;;;;;;13.18;79.69;100357.69;5086028;28;20459;-69
2022/10/05 04:41:07;;;;;;;10.00;7.40;;;;;;;13.17;80.14;100358.66;5098229;28;20511;-69
2022/10/05 04:43:42;;;;;;;10.90;7.67;;;;;;;13.24;79.82;100352.69;5099069;28;20808;-69
2022/10/05 04:46:18;;;;;;;11.57;8.73;;;;;;;13.26;79.55;100350.69;5112298;28;20470;-69
2022/10/05 04:49:07;;;;;;;12.10;7.47;;;;;;;13.18;79.69;100356.84;5120233;28;20515;-69
2022/10/05 04:51:41;;;;;;;10.30;8.87;;;;;;;13.12;80.13;100350.25;5119380;28;20569;-69
2022/10/05 04:54:15;;;;;;;17.10;7.67;;;;;;;13.10;80.21;100346.03;5118731;28;20438;-69
2022/10/05 04:56:45;;;;;;;10.73;8.47;;;;;;;12.98;80.62;100343.59;5117409;28;20525;-69
2022/10/05 04:59:28;;;;;;;9.40;8.10;;;;;;;12.96;80.90;100344.72;5119677;28;20470;-68
2022/10/05 05:02:05;;;;;;;14.03;7.70;;;;;;;13.00;80.95;100351.47;5114694;28;20474;-69
2022/10/05 05:04:51;;;;;;;10.27;8.53;;;;;;;12.95;81.04;100354.63;5097211;28;20477;-69
2022/10/05 05:07:28;;;;;;;10.80;8.17;;;;;;;12.89;81.73;100368.66;5099813;28;21179;-69
2022/10/05 05:10:06;;;;;;;11.97;8.27;;;;;;;12.74;81.96;100373.72;5097582;28;20513;-69
2022/10/05 05:12:39;;;;;;;12.63;8.67;;;;;;;12.79;82.13;100374.09;5097500;28;20471;-68
2022/10/05 05:15:22;;;;;;;11.37;8.07;;;;;;;12.82;81.98;100383.66;5098573;28;20474;-64
2022/10/05 05:18:00;;;;;;;12.47;8.57;;;;;;;12.80;81.98;100373.09;5096719;28;20458;-68
2022/10/05 05:20:38;;;;;;;10.23;7.80;;;;;;;12.91;81.59;100374.69;5103581;28;20534;-70
2022/10/05 05:23:10;;;;;;;9.40;7.87;;;;;;;12.82;81.75;100378.31;5098817;28;20466;-69
2022/10/05 05:25:42;;;;;;;11.03;8.63;;;;;;;12.89;81.82;100381.22;5118682;28;20494;-70
2022/10/05 05:28:19;;;;;;;10.30;8.43;;;;;;;12.87;81.88;100367.97;5119262;28;20509;-70
2022/10/05 05:30:48;;;;;;;13.80;8.80;;;;;;;12.87;81.49;100367.13;5117061;28;21241;-69
2022/10/05 05:33:21;;;;;;;10.93;7.90;;;;;;;12.82;81.95;100370.25;5119070;28;20530;-67
2022/10/05 05:36:26;;;;;;;11.70;8.70;;;;;;;12.80;82.24;100369.56;5114572;28;20474;-68
2022/10/05 05:38:59;;;;;;;11.33;7.73;;;;;;;12.84;82.08;100379.00;5096654;28;20502;-68
2022/10/05 05:41:31;;;;;;;10.70;8.90;;;;;;;12.84;82.47;100379.00;5098086;28;21122;-68
2022/10/05 05:44:06;;;;;;;10.40;7.90;;;;;;;12.94;82.17;100373.56;5098412;28;21139;-68
2022/10/05 05:46:36;;;;;;;13.37;8.20;;;;;;;12.99;81.68;100373.94;5095377;28;20467;-68
2022/10/05 05:49:07;;;;;;;11.67;8.67;;;;;;;12.94;81.60;100366.34;5099157;28;20468;-67
2022/10/05 05:51:39;;;;;;;10.63;9.20;;;;;;;13.05;81.34;100380.53;5098115;28;20502;-67
2022/10/05 05:54:20;;;;;;;13.50;8.73;;;;;;;12.97;81.91;100368.72;5099343;28;20424;-68
2022/10/05 05:56:51;;;;;;;11.90;7.93;;;;;;;13.10;81.18;100376.38;5098642;28;20506;-68
2022/10/05 05:59:20;;;;;;;11.27;8.90;;;;;;;13.22;80.74;100365.44;5098682;28;20479;-68
2022/10/05 06:01:49;;;;;;;11.70;8.80;;;;;;;13.17;81.00;100372.09;5098745;28;20526;-67
2022/10/05 06:04:18;;;;;;;13.80;9.00;;;;;;;13.19;80.97;100374.63;5101137;28;20495;-67
2022/10/05 06:06:48;;;;;;;10.23;7.93;;;;;;;13.21;80.67;100369.09;5101922;28;20601;-67
2022/10/05 06:09:19;;;;;;;11.20;7.60;;;;;;;13.32;80.37;100369.75;5103842;28;20502;-67
2022/10/05 06:11:49;;;;;;;11.57;8.67;;;;;;;13.25;80.47;100367.81;5102804;28;20483;-67
2022/10/05 06:14:17;;;;;;;10.50;8.13;;;;;;;13.33;80.52;100373.25;5102657;28;20481;-67
2022/10/05 06:16:49;;;;;;;10.47;7.30;;;;;;;13.39;80.48;100377.19;5102531;28;20479;-67
2022/10/05 06:19:17;;;;;;;11.70;8.33;;;;;;;13.52;79.84;100378.47;5102426;28;20431;-67
2022/10/05 06:21:48;;;;;;;10.90;8.67;;;;;;;13.71;79.39;100379.25;5102039;28;20475;-67
2022/10/05 06:24:17;;;;;;;9.23;8.23;;;;;;;13.67;79.21;100381.41;5103489;28;20487;-68
2022/10/05 06:27:16;;;;;;;11.00;7.93;;;;;;;13.72;78.94;100379.09;5102306;28;21116;-68
2022/10/05 06:30:01;;;;;;;9.77;8.53;;;;;;;13.64;79.36;100386.25;5102162;28;20456;-68
2022/10/05 06:32:30;;;;;;;9.53;8.50;;;;;;;13.64;79.02;100387.09;5102322;28;20479;-68
2022/10/05 06:35:05;;;;;;;10.67;8.40;;;;;;;13.66;78.92;100384.25;5103231;28;20439;-68
2022/10/05 06:37:44;;;;;;;12.70;8.17;;;;;;;13.78;78.78;100388.34;5101653;28;20455;-68
2022/10/05 06:40:16;;;;;;;11.10;8.30;;;;;;;13.89;78.23;100377.34;5100523;28;20479;-69
2022/10/05 06:42:51;;;;;;;11.60;8.27;;;;;;;13.75;78.82;100386.00;5098104;28;20448;-68
2022/10/05 06:45:22;;;;;;;10.27;8.37;;;;;;;13.75;78.97;100378.78;5099229;28;20574;-68
2022/10/05 06:47:51;;;;;;;11.40;8.50;;;;;;;13.75;78.80;100378.78;5100776;28;20447;-68
2022/10/05 06:50:24;;;;;;;10.77;8.50;;;;;;;13.81;78.59;100373.78;5102084;28;20962;-67
2022/10/05 06:53:05;;;;;;;9.60;7.90;;;;;;;13.85;78.59;100378.69;5101255;28;20998;-68
2022/10/05 06:55:39;;;;;;;18.10;9.10;;;;;;;13.92;78.15;100378.88;5101288;28;20523;-68
2022/10/05 06:58:16;;;;;;;10.57;8.27;;;;;;;13.93;77.71;100381.41;5101041;28;21017;-68
2022/10/05 07:00:48;;;;;;;14.93;8.10;;;;;;;14.08;77.81;100378.97;5100787;28;20474;-68
2022/10/05 07:03:22;;;;;;;12.93;7.40;;;;;;;14.15;77.85;100379.19;5101545;28;20431;-69
2022/10/05 07:05:57;;;;;;;9.90;8.37;;;;;;;14.12;77.51;100371.44;5100484;28;20505;-68
2022/10/05 07:08:33;;;;;;;11.33;9.00;;;;;;;14.15;77.12;100372.94;5101270;28;20938;-68
2022/10/05 07:11:06;;;;;;;9.27;8.13;;;;;;;14.58;75.99;100373.78;5100976;28;20506;-68
2022/10/05 07:13:50;;;;;;;14.00;9.27;;;;;;;14.61;75.62;100371.63;5100165;28;20495;-68
2022/10/05 07:16:24;;;;;;;9.60;8.47;;;;;;;14.94;73.90;100379.78;5097627;28;20471;-68
2022/10/05 07:19:03;;;;;;;18.03;8.47;;;;;;;14.97;74.05;100374.06;5100180;28;20458;-67
2022/10/05 07:21:38;;;;;;;10.67;7.97;;;;;;;15.00;73.90;100372.91;5099468;28;20471;-68
2022/10/05 07:24:14;;;;;;;11.90;7.50;;;;;;;14.97;73.92;100374.06;5097235;28;20447;-69
2022/10/05 07:26:44;;;;;;;9.80;7.57;;;;;;;14.77;74.07;100370.84;5100487;28;20572;-68
2022/10/05 07:29:23;;;;;;;11.00;8.00;;;;;;;14.88;74.13;100375.06;5100152;28;20502;-68
2022/10/05 07:31:58;;;;;;;11.10;7.77;;;;;;;15.05;73.21;100376.78;5099822;28;20471;-67
2022/10/05 07:34:34;;;;;;;8.77;7.30;;;;;;;15.22;72.94;100376.78;5101287;28;20793;-68
2022/10/05 07:39:57;;;;;;;11.70;7.67;;;;;;;15.75;70.83;100382.69;5101740;28;20427;-68
2022/10/05 07:42:31;;;;;;;9.70;8.07;;;;;;;15.44;71.19;100376.09;5099750;28;20487;-68
2022/10/05 07:45:02;;;;;;;11.10;8.60;;;;;;;15.30;71.80;100389.41;5099850;28;20482;-68
2022/10/05 07:47:35;;;;;;;11.43;7.50;;;;;;;15.25;71.91;100387.22;5100212;28;20503;-69
2022/10/05 07:50:05;;;;;;;9.37;8.20;;;;;;;15.14;72.35;100390.25;5100107;28;20500;-68
2022/10/05 07:52:36;;;;;;;10.50;8.27;;;;;;;15.13;72.59;100386.69;5099847;28;21054;-68
2022/10/05 07:55:12;;;;;;;8.37;7.30;;;;;;;15.02;72.59;100392.44;5100771;28;20450;-68
2022/10/05 07:57:42;;;;;;;8.67;7.27;;;;;;;15.14;72.69;100395.66;5099313;28;20462;-68
2022/10/05 08:00:13;;;;;;;10.97;8.50;;;;;;;15.35;71.91;100389.75;5100749;28;20462;-68
2022/10/05 08:02:44;;;;;;;13.37;8.40;;;;;;;15.44;71.33;100396.81;5100894;28;20439;-67
2022/10/05 08:05:14;;;;;;;10.27;7.47;;;;;;;15.49;71.42;100385.53;5099241;28;20532;-68
2022/10/05 08:07:41;;;;;;;10.10;8.43;;;;;;;15.48;71.19;100394.63;5100348;28;20482;-68
2022/10/05 08:10:21;;;;;;;10.20;7.77;;;;;;;15.47;71.63;100387.53;5100265;28;20467;-68
2022/10/05 08:12:57;;;;;;;8.00;6.83;;;;;;;15.53;71.81;100401.19;5098909;28;20474;-68
2022/10/05 08:15:29;;;;;;;12.63;7.63;;;;;;;15.34;71.71;100399.69;5100082;28;20419;-68
2022/10/05 08:17:59;;;;;;;8.97;7.37;;;;;;;15.23;71.90;100403.53;5099752;28;20451;-68
2022/10/05 08:20:32;;;;;;;8.73;6.40;;;;;;;15.25;72.52;100403.38;5099087;28;20451;-68
2022/10/05 08:23:05;;;;;;;9.57;6.70;;;;;;;15.39;72.12;100397.31;5100110;28;20431;-69
2022/10/05 08:25:40;;;;;;;12.33;7.70;;;;;;;15.37;71.91;100411.97;5099651;28;20475;-68
2022/10/05 08:28:12;;;;;;;11.67;7.57;;;;;;;15.31;71.56;100405.41;5098906;28;20786;-68
2022/10/05 08:30:50;;;;;;;11.47;7.80;;;;;;;15.56;71.38;100406.25;5100031;28;20459;-69
2022/10/05 08:33:19;;;;;;;9.80;7.80;;;;;;;15.44;71.46;100403.03;5099948;28;20503;-67
2022/10/05 08:35:50;;;;;;;10.17;7.17;;;;;;;15.59;70.71;100392.44;5099880;28;21044;-68
2022/10/05 08:38:19;;;;;;;9.23;6.00;;;;;;;15.65;70.87;100401.69;5099373;28;20985;-68
2022/10/05 08:41:10;;;;;;;9.40;7.00;;;;;;;15.72;70.37;100391.06;5099619;28;20516;-67
2022/10/05 08:43:54;;;;;;;12.17;7.50;;;;;;;15.80;70.30;100400.03;5097567;28;20463;-67
2022/10/05 08:46:43;;;;;;;12.67;7.10;;;;;;;15.46;71.30;100402.03;5099669;28;20471;-68
2022/10/05 08:49:22;;;;;;;8.03;7.23;;;;;;;15.33;71.56;100405.22;5099440;28;20427;-68
2022/10/05 08:52:15;;;;;;;7.30;6.60;;;;;;;15.52;71.27;100399.53;5099106;28;21019;-68
2022/10/05 08:54:45;;;;;;;10.93;7.17;;;;;;;15.59;71.38;100397.81;5099790;28;20451;-67
2022/10/05 08:57:34;;;;;;;7.60;6.03;;;;;;;15.57;70.96;100417.84;5098361;28;21072;-68
2022/10/05 09:00:13;;;;;;;8.93;6.63;;;;;;;15.61;70.92;100408.44;5099758;28;20461;-68
2022/10/05 09:02:57;;;;;;;7.40;6.63;;;;;;;15.50;71.06;100417.72;5099074;28;20462;-68
2022/10/05 09:05:37;;;;;;;12.07;6.70;;;;;;;15.49;71.76;100417.88;5098740;28;20494;-67
2022/10/05 09:08:20;;;;;;;8.83;6.97;;;;;;;15.31;71.69;100424.28;5099408;28;20770;-68
2022/10/05 09:11:03;;;;;;;9.77;5.93;;;;;;;15.49;71.49;100412.50;5098835;28;20499;-68
2022/10/05 09:14:04;;;;;;;6.93;5.30;;;;;;;15.59;71.02;100422.09;5096440;28;20483;-68
2022/10/05 09:16:58;;;;;;;14.17;6.00;;;;;;;15.46;71.60;100421.75;5085561;28;20489;-68
2022/10/05 09:19:38;;;;;;;8.70;6.40;;;;;;;15.35;71.81;100420.22;5083965;28;20477;-67
2022/10/05 09:22:14;;;;;;;9.43;6.07;;;;;;;15.55;71.23;100412.63;5098821;28;20531;-68
2022/10/05 09:24:55;;;;;;;7.27;5.20;;;;;;;15.73;70.80;100412.47;5099420;28;20479;-67
2022/10/05 09:27:34;;;;;;;7.13;5.60;;;;;;;15.70;70.15;100402.03;5098019;28;20518;-68
2022/10/05 09:30:25;;;;;;;6.27;5.30;;;;;;;15.90;70.11;100407.06;5099390;28;20427;-68
2022/10/05 09:33:05;;;;;;;6.70;5.53;;;;;;;15.97;69.87;100399.97;5091250;28;20520;-68
2022/10/05 09:35:57;;;;;;;5.40;4.90;;;;;;;16.09;69.21;100400.47;5098469;28;20506;-68
2022/10/05 09:38:28;;;;;;;6.57;5.70;;;;;;;16.19;68.24;100396.53;5099103;28;20939;-68
2022/10/05 09:41:36;;;;;;;7.90;5.87;;;;;;;16.34;68.40;100393.13;5102423;28;20475;-68
2022/10/05 09:44:42;;;;;;;11.63;6.17;;;;;;;16.38;67.85;100389.06;5082225;28;20461;-68
2022/10/05 09:47:45;;;;;;;9.33;6.37;;;;;;;16.34;67.75;100387.75;5022085;28;20531;-68
2022/10/05 09:50:43;;;;;;;7.47;5.70;;;;;;;16.73;66.95;100385.03;5060253;28;20445;-68
2022/10/05 09:53:39;;;;;;;8.83;5.70;;;;;;;16.68;66.37;100382.00;5073437;28;20823;-69
2022/10/05 09:56:33;;;;;;;6.53;5.83;;;;;;;16.84;66.45;100378.41;5081930;28;20927;-69
2022/10/05 09:59:23;;;;;;;6.90;6.10;;;;;;;16.70;67.01;100382.69;4999867;28;20484;-69
2022/10/05 10:02:12;;;;;;;7.10;5.47;;;;;;;16.77;66.47;100385.50;4999877;28;20542;-68
2022/10/05 10:05:00;;;;;;;6.47;5.87;;;;;;;16.57;67.11;100375.13;4999613;28;20455;-68
2022/10/05 10:07:52;;;;;;;6.07;5.47;;;;;;;16.77;66.60;100372.00;4999261;28;20492;-68
2022/10/05 10:10:47;;;;;;;6.03;5.53;;;;;;;16.75;67.22;100374.03;4999964;28;20550;-68
2022/10/05 10:13:28;;;;;;;7.83;6.10;;;;;;;16.87;66.44;100369.09;5029565;28;21102;-68
2022/10/05 10:16:10;;;;;;;7.23;5.33;;;;;;;16.97;66.29;100366.16;5038325;28;20520;-69
2022/10/05 10:19:15;;;;;;;6.07;5.30;;;;;;;16.92;66.10;100348.63;5014667;28;21006;-69
2022/10/05 10:22:15;;;;;;;7.03;5.00;;;;;;;17.61;64.07;100366.63;5023540;28;20569;-68
2022/10/05 10:25:01;;;;;;;10.70;5.43;;;;;;;17.81;63.66;100364.25;5031416;28;20462;-69
2022/10/05 10:27:53;;;;;;;6.47;5.57;;;;;;;17.66;63.31;100356.09;5030620;28;20478;-68
2022/10/05 10:30:55;;;;;;;7.50;4.60;;;;;;;17.55;63.17;100353.88;5022970;28;20451;-69
2022/10/05 10:33:55;;;;;;;6.40;5.67;;;;;;;17.18;63.83;100352.00;4955876;29;20489;-68
2022/10/05 10:36:33;;;;;;;6.83;5.60;;;;;;;17.38;64.11;100352.34;5051551;28;20475;-68
2022/10/05 10:39:03;;;;;;;5.33;4.67;;;;;;;17.32;64.33;100348.50;5097388;28;20878;-68
2022/10/05 10:42:04;;;;;;;5.43;4.60;;;;;;;17.65;64.12;100351.75;5101184;28;20467;-68
2022/10/05 10:45:05;;;;;;;8.57;5.30;;;;;;;17.75;62.70;100331.69;5100594;28;20447;-69
2022/10/05 10:47:50;;;;;;;5.47;4.93;;;;;;;17.85;62.80;100343.09;5101713;28;20459;-68
2022/10/05 10:50:53;;;;;;;5.43;4.63;;;;;;;17.84;62.50;100338.69;5101166;28;20442;-69
2022/10/05 10:53:33;;;;;;;6.40;5.17;;;;;;;17.89;62.22;100339.00;5097978;28;20454;-69
2022/10/05 10:56:16;;;;;;;7.67;4.50;;;;;;;18.13;61.89;100334.34;5100574;28;20493;-68
2022/10/05 10:59:22;;;;;;;8.20;5.00;;;;;;;18.04;61.60;100337.13;5100086;28;20520;-69
2022/10/05 11:02:06;;;;;;;7.93;4.70;;;;;;;18.21;61.63;100335.06;5042495;28;20576;-69
2022/10/05 11:05:17;;;;;;;5.83;4.77;;;;;;;18.17;60.99;100330.22;5099073;28;20938;-69
2022/10/05 11:08:06;;;;;;;5.27;4.27;;;;;;;18.70;59.70;100330.03;5101204;28;20463;-69
2022/10/05 11:10:49;;;;;;;5.60;4.43;;;;;;;18.89;59.08;100334.84;5096282;28;20515;-68
2022/10/05 11:13:38;;;;;;;11.57;5.33;;;;;;;18.43;60.43;100324.28;5099687;28;20485;-69
2022/10/05 11:16:33;;;;;;;7.10;4.70;;;;;;;18.89;59.19;100329.41;5100995;28;20821;-68
2022/10/05 11:19:26;;;;;;;5.40;4.00;;;;;;;18.42;60.05;100318.06;5099444;28;20459;-72
2022/10/05 11:22:04;;;;;;;7.03;5.30;;;;;;;18.38;60.24;100321.31;5100769;28;20509;-73
2022/10/05 11:24:49;;;;;;;4.47;4.07;;;;;;;19.13;58.80;100317.34;5100982;28;20553;-73
2022/10/05 11:27:24;;;;;;;7.67;5.70;;;;;;;18.88;58.91;100316.06;5099929;28;20499;-73
2022/10/05 11:30:27;;;;;;;5.67;5.17;;;;;;;18.50;59.53;100302.72;5101028;28;20450;-72
2022/10/05 11:33:30;;;;;;;5.40;4.90;;;;;;;18.19;60.67;100310.06;5100505;28;20482;-73
2022/10/05 11:36:37;;;;;;;5.87;4.23;;;;;;;18.60;59.71;100309.50;5100445;28;20475;-73
2022/10/05 11:39:32;;;;;;;6.03;4.67;;;;;;;18.37;59.71;100298.84;5092983;28;20460;-73
2022/10/05 11:42:32;;;;;;;5.33;4.83;;;;;;;18.37;60.35;100306.13;5100272;28;20474;-73
2022/10/05 11:45:24;;;;;;;4.73;4.23;;;;;;;18.52;59.74;100301.50;5095412;28;20474;-73
2022/10/05 11:48:08;;;;;;;5.23;4.13;;;;;;;18.70;59.76;100292.13;5099646;28;20523;-72
2022/10/05 11:50:39;;;;;;;10.60;4.23;;;;;;;19.03;58.54;100283.50;5099925;28;20463;-73
2022/10/05 11:53:14;;;;;;;5.17;4.40;;;;;;;18.82;58.84;100271.63;5100675;28;20432;-73
2022/10/05 11:55:42;;;;;;;6.37;4.30;;;;;;;19.32;57.55;100263.47;5099688;28;20499;-73
2022/10/05 11:58:16;;;;;;;4.63;4.07;;;;;;;19.18;57.92;100265.25;5099879;28;20455;-72
2022/10/05 12:00:44;;;;;;;6.73;4.20;;;;;;;19.31;57.03;100269.94;5100135;28;20497;-72
2022/10/05 12:03:32;;;;;;;4.27;3.87;;;;;;;19.28;57.68;100263.03;5099334;28;20427;-72
2022/10/05 12:06:24;;;;;;;4.03;3.60;;;;;;;19.71;56.83;100253.94;5100035;28;20475;-72
2022/10/05 12:08:59;;;;;;;6.70;4.00;;;;;;;19.90;55.37;100250.50;5092782;28;20490;-73
2022/10/05 12:11:33;;;;;;;5.07;3.10;;;;;;;20.74;53.69;100236.78;5099693;28;20467;-73